Home PIREPS Pireps

Flight SAB3620

  • Submitted By: Vincent Fourni
  • Departure Airport: Cote d'Azur International Airport (LFMN)
  • Arrival Airport: Bruxelles National (EBBR)
  • Aircraft: B737-500 (OO-SAB)
  • Flight Time: 01.50
  • Date Submitted: 06/10/2017
  • Status: Accepted
Flight Details
Gross Revenue:
(131 load / € 0.00 per unit
€ 0.00
Fuel Cost:
(5262 fuel used @ 5.1 / unit)
€ 26,836.20

Additional Log Information:

View Log

Aircraft Used in flight is PMDG 737-800NGX Brussels Airlines Winglets
21:08 Brakes are On
21:10 Brakes are Released
21:22 You Took off @ 173 Knots and Flaps at Position 3
Departure Weather
LFMN 061900Z 32002KT 9999 FEW030 20/15 Q1010 NOSIGrn
21:22 Landing Gear Up @ 173 Knots and 280 Feet
22:47 Above FL100 you need to switch of the landing lights
22:47 Above FL100 you need to switch of the landing lights
22:56 Landing Gear Down @ 199 Knots and 2030 Feet
22:58 You Landed @ 148 Knots and with -700 Vertical Speed
Arrival Weather
EBBR 062020Z 27006KT 9999 FEW033 BKN046 11/08 Q1025 NOSIGrn
22:58 Your Landing was very hard
22:58 Paused
23:01 Unpaused
23:01 Paused
23:01 Unpaused
23:01 Brakes are On
23:02 Brussels Bel-Track1.0.1.2

Route Map

Corporate About Us Our Team Vacancies Information Fleet Route Network Rules and Regulations Operations Flight Schedules Event Center Tours Partners IVAO Vatsim Acars dev FSCB

fb Users Online Belgium Bennie Peeters, South Africa Marc Toussaint,
2 Pilot(s) and 167 Guest(s) Online
CMS by phpVMS - Design by Crazycreatives.com - Copyright © 2020 - Brussels Airlines Virtual